Time;durP1;ratioP1;P1;durP2;ratioP2;P2;SDS_P1;SDS_P2;PMS_P1;PMS_P2;Temp;Humidity;BMP_temperature;BMP_pressure;BME280_temperature;BME280_humidity;BME280_pressure;Samples;Min_cycle;Max_cycle;Signal;HPM_P1;HPM_P2
2022/04/05 00:02:00;;;;;;;0.20;0.20;;;;;;;9.92;53.56;99927.47;4981817;28;20147;-76
2022/04/05 00:04:26;;;;;;;0.20;0.20;;;;;;;9.98;51.46;99924.03;4982344;28;20027;-76
2022/04/05 00:06:51;;;;;;;0.20;0.20;;;;;;;10.03;51.00;99922.94;4982225;28;20109;-76
2022/04/05 00:09:17;;;;;;;0.20;0.20;;;;;;;10.00;51.52;99922.88;4982786;28;20050;-76
2022/04/05 00:11:45;;;;;;;0.20;0.20;;;;;;;9.93;52.68;99918.78;4982366;28;20058;-76
2022/04/05 00:14:11;;;;;;;0.20;0.20;;;;;;;9.97;56.13;99913.28;4982152;28;20062;-76
2022/04/05 00:16:36;;;;;;;0.20;0.20;;;;;;;9.94;56.80;99914.00;4982471;28;20035;-76
2022/04/05 00:19:04;;;;;;;0.20;0.20;;;;;;;9.85;57.55;99914.22;4981733;28;20053;-76
2022/04/05 00:21:30;;;;;;;0.20;0.20;;;;;;;9.79;58.09;99921.22;4982291;28;20474;-76
2022/04/05 00:23:56;;;;;;;0.20;0.20;;;;;;;9.69;58.57;99913.47;4982280;28;20034;-76
2022/04/05 00:26:24;;;;;;;0.20;0.20;;;;;;;9.67;58.98;99904.72;4982371;28;20100;-76
2022/04/05 00:28:52;;;;;;;0.20;0.20;;;;;;;9.55;59.85;99896.50;4982179;28;20034;-76
2022/04/05 00:31:18;;;;;;;0.20;0.20;;;;;;;9.44;60.11;99891.53;4982283;28;20031;-76
2022/04/05 00:33:51;;;;;;;0.30;0.30;;;;;;;9.37;61.10;99887.75;4982036;28;20124;-75
2022/04/05 00:36:19;;;;;;;0.20;0.20;;;;;;;9.38;60.60;99881.88;4981470;28;20027;-76
2022/04/05 00:38:45;;;;;;;0.20;0.20;;;;;;;9.29;61.18;99875.69;4980913;28;20035;-76
2022/04/05 00:41:14;;;;;;;0.20;0.20;;;;;;;9.17;61.51;99871.06;4981109;28;20073;-76
2022/04/05 00:43:40;;;;;;;0.20;0.20;;;;;;;9.14;61.64;99870.97;4981544;28;20070;-76
2022/04/05 00:46:08;;;;;;;0.20;0.20;;;;;;;9.14;62.00;99870.97;4981835;28;20031;-76
2022/04/05 00:48:49;;;;;;;0.20;0.20;;;;;;;9.12;61.46;99867.78;4981433;28;20027;-76
2022/04/05 00:51:16;;;;;;;0.20;0.20;;;;;;;9.10;61.26;99853.44;4981549;28;20027;-76
2022/04/05 00:53:46;;;;;;;0.20;0.20;;;;;;;9.07;61.88;99859.72;4981776;28;20493;-76
2022/04/05 00:56:16;;;;;;;0.20;0.20;;;;;;;8.95;61.74;99851.47;4982320;28;20042;-77
2022/04/05 00:58:47;;;;;;;0.20;0.20;;;;;;;8.96;62.22;99853.09;4982019;28;20031;-76
2022/04/05 01:01:16;;;;;;;0.20;0.20;;;;;;;8.90;61.85;99856.16;4982244;28;20045;-76
2022/04/05 01:03:48;;;;;;;0.20;0.20;;;;;;;8.83;62.46;99855.97;4982606;28;20053;-76
2022/04/05 01:06:19;;;;;;;0.20;0.20;;;;;;;8.77;62.38;99845.50;4981705;28;20038;-76
2022/04/05 01:08:48;;;;;;;0.20;0.20;;;;;;;8.90;62.47;99856.16;4982394;28;20389;-76
2022/04/05 01:11:17;;;;;;;0.30;0.30;;;;;;;8.88;62.25;99852.91;4983107;28;20062;-76
2022/04/05 01:13:43;;;;;;;0.20;0.20;;;;;;;8.74;62.09;99847.03;4982353;28;20055;-76
2022/04/05 01:16:12;;;;;;;0.30;0.30;;;;;;;8.62;63.43;99844.34;4982946;28;20165;-76
2022/04/05 01:18:42;;;;;;;0.20;0.20;;;;;;;8.56;62.65;99837.47;4983476;28;20042;-76
2022/04/05 01:21:10;;;;;;;0.20;0.20;;;;;;;8.54;62.86;99839.78;4983585;28;20023;-76
2022/04/05 01:23:36;;;;;;;0.20;0.20;;;;;;;8.60;62.72;99835.59;4982427;28;20058;-76
2022/04/05 01:26:02;;;;;;;0.20;0.20;;;;;;;8.68;61.67;99837.34;4983567;28;20034;-76
2022/04/05 01:28:33;;;;;;;0.30;0.30;;;;;;;8.62;62.87;99834.03;4983176;28;20022;-76
2022/04/05 01:31:02;;;;;;;0.20;0.20;;;;;;;8.50;62.84;99836.13;4984439;28;20027;-76
2022/04/05 01:33:28;;;;;;;0.30;0.30;;;;;;;8.45;62.93;99834.41;4984061;28;20034;-76
2022/04/05 01:35:56;;;;;;;0.30;0.30;;;;;;;8.54;63.12;99825.94;4965105;28;20034;-76
2022/04/05 01:38:25;;;;;;;0.20;0.20;;;;;;;8.64;62.38;99830.94;4979715;28;20040;-76
2022/04/05 01:40:55;;;;;;;0.20;0.20;;;;;;;8.61;61.83;99828.88;4979682;28;20041;-76
2022/04/05 01:43:20;;;;;;;0.30;0.30;;;;;;;8.46;60.76;99815.81;4979450;28;20045;-76
2022/04/05 01:45:46;;;;;;;0.20;0.20;;;;;;;8.53;61.13;99819.56;4979836;28;20054;-76
2022/04/05 01:48:13;;;;;;;0.20;0.20;;;;;;;8.46;59.99;99824.13;4980271;28;20497;-76
2022/04/05 01:50:42;;;;;;;0.20;0.20;;;;;;;8.66;58.05;99817.50;4980174;28;20113;-76
2022/04/05 01:53:10;;;;;;;0.30;0.30;;;;;;;8.68;57.89;99820.72;4978993;28;20031;-76
2022/04/05 01:55:38;;;;;;;0.20;0.20;;;;;;;8.79;57.99;99804.31;4979788;28;20026;-76
2022/04/05 01:58:04;;;;;;;0.20;0.20;;;;;;;8.78;57.34;99809.06;4980567;28;20121;-75
2022/04/05 02:00:30;;;;;;;0.20;0.20;;;;;;;8.75;57.46;99809.81;4980696;28;20058;-76
2022/04/05 02:02:55;;;;;;;0.30;0.30;;;;;;;8.73;58.04;99805.78;4982449;28;20090;-76
2022/04/05 02:05:21;;;;;;;0.20;0.20;;;;;;;8.84;56.85;99802.13;4983390;28;20026;-77
2022/04/05 02:07:49;;;;;;;0.20;0.20;;;;;;;8.81;57.11;99802.81;4980107;28;20031;-76
2022/04/05 02:10:17;;;;;;;0.20;0.20;;;;;;;8.86;56.80;99804.50;4978901;28;20123;-76
2022/04/05 02:12:44;;;;;;;0.20;0.20;;;;;;;8.80;56.97;99804.00;4980047;28;20093;-76
2022/04/05 02:15:10;;;;;;;0.20;0.20;;;;;;;8.77;57.21;99807.47;4979024;28;20030;-76
2022/04/05 02:17:37;;;;;;;0.20;0.20;;;;;;;8.76;56.76;99808.63;4979558;28;20079;-76
2022/04/05 02:20:04;;;;;;;0.20;0.20;;;;;;;8.79;56.73;99815.44;4979587;28;20027;-76
2022/04/05 02:22:30;;;;;;;0.20;0.20;;;;;;;8.78;56.99;99806.31;4979793;28;20035;-76
2022/04/05 02:24:56;;;;;;;0.20;0.20;;;;;;;8.82;57.79;99809.16;4979481;28;20037;-76
2022/04/05 02:27:25;;;;;;;0.28;0.28;;;;;;;8.74;57.66;99821.28;4979545;28;20042;-75
2022/04/05 02:29:53;;;;;;;0.20;0.20;;;;;;;8.61;58.27;99815.00;4979766;28;20034;-76
2022/04/05 02:32:22;;;;;;;0.20;0.20;;;;;;;8.52;58.29;99811.59;4980991;28;20038;-76
2022/04/05 02:34:50;;;;;;;0.28;0.28;;;;;;;8.55;58.66;99816.44;4980773;28;20070;-76
2022/04/05 02:37:18;;;;;;;0.20;0.20;;;;;;;8.47;58.70;99814.63;4981379;28;20062;-76
2022/04/05 02:39:47;;;;;;;0.20;0.20;;;;;;;8.41;58.80;99811.31;4981237;28;20090;-76
2022/04/05 02:42:15;;;;;;;0.20;0.20;;;;;;;8.38;58.56;99818.41;4981221;28;20122;-76
2022/04/05 02:44:42;;;;;;;0.20;0.20;;;;;;;8.33;58.01;99810.31;4980908;28;20037;-75
2022/04/05 02:47:09;;;;;;;0.30;0.30;;;;;;;8.35;59.33;99813.53;4981194;28;20035;-76
2022/04/05 02:49:34;;;;;;;0.25;0.25;;;;;;;8.33;59.11;99810.31;4980652;28;20034;-76
2022/04/05 02:52:00;;;;;;;0.30;0.30;;;;;;;8.35;59.33;99815.50;4980302;28;20035;-76
2022/04/05 02:54:29;;;;;;;0.30;0.30;;;;;;;8.39;59.97;99814.47;4980267;28;20034;-76
2022/04/05 02:56:54;;;;;;;0.20;0.20;;;;;;;8.35;59.14;99813.53;4980619;28;20043;-76
2022/04/05 02:59:20;;;;;;;0.20;0.20;;;;;;;8.22;59.50;99808.44;4978352;28;20557;-76
2022/04/05 03:01:46;;;;;;;0.20;0.20;;;;;;;8.20;59.19;99811.53;4980299;28;20038;-76
2022/04/05 03:04:12;;;;;;;0.30;0.30;;;;;;;8.17;59.03;99817.81;4980466;28;20053;-76
2022/04/05 03:06:37;;;;;;;0.20;0.20;;;;;;;8.12;59.57;99810.56;4983033;28;20446;-76
2022/04/05 03:09:03;;;;;;;0.30;0.30;;;;;;;8.10;59.63;99812.09;4984578;28;20030;-76
2022/04/05 03:11:29;;;;;;;0.30;0.30;;;;;;;8.17;59.19;99803.97;4985083;28;20121;-76
2022/04/05 03:13:55;;;;;;;0.20;0.20;;;;;;;8.19;59.50;99809.94;4984961;28;20062;-76
2022/04/05 03:16:21;;;;;;;0.20;0.20;;;;;;;8.19;59.62;99820.22;4984593;28;20115;-76
2022/04/05 03:18:50;;;;;;;0.20;0.20;;;;;;;8.16;59.88;99810.66;4984388;28;20113;-76
2022/04/05 03:21:16;;;;;;;0.20;0.20;;;;;;;7.97;59.76;99780.06;4984601;28;20023;-76
2022/04/05 03:23:41;;;;;;;0.30;0.30;;;;;;;8.17;60.76;99811.47;4983909;28;20027;-76
2022/04/05 03:26:08;;;;;;;0.20;0.20;;;;;;;8.14;60.60;99810.19;4982909;28;20035;-76
2022/04/05 03:28:33;;;;;;;0.20;0.20;;;;;;;8.13;60.08;99816.91;4983552;28;20098;-76
2022/04/05 03:30:59;;;;;;;0.20;0.20;;;;;;;8.14;61.16;99819.31;4983172;28;20054;-76
2022/04/05 03:33:28;;;;;;;0.20;0.20;;;;;;;8.17;61.09;99817.81;4983201;28;20066;-76
2022/04/05 03:35:56;;;;;;;0.20;0.20;;;;;;;8.13;61.11;99823.25;4982843;28;20030;-76
2022/04/05 03:38:22;;;;;;;0.30;0.30;;;;;;;8.09;61.64;99818.78;4983491;28;20070;-76
2022/04/05 03:40:50;;;;;;;0.20;0.20;;;;;;;8.10;61.96;99817.63;4983645;28;20033;-76
2022/04/05 03:43:16;;;;;;;0.20;0.20;;;;;;;8.02;63.47;99821.38;4983014;28;20038;-76
2022/04/05 03:45:41;;;;;;;0.30;0.30;;;;;;;7.95;62.15;99812.88;4984975;28;20038;-76
2022/04/05 03:48:10;;;;;;;0.20;0.20;;;;;;;7.92;62.58;99814.38;4984979;28;20035;-76
2022/04/05 03:50:38;;;;;;;0.20;0.20;;;;;;;7.91;63.48;99814.72;4985066;28;20042;-76
2022/04/05 03:53:10;;;;;;;0.20;0.20;;;;;;;7.95;64.02;99819.22;4984902;28;20043;-76
2022/04/05 03:55:39;;;;;;;0.20;0.20;;;;;;;7.91;64.14;99820.28;4985602;28;20026;-76
2022/04/05 03:58:04;;;;;;;0.20;0.20;;;;;;;7.94;63.70;99820.38;4985155;28;20397;-77
2022/04/05 04:00:33;;;;;;;0.20;0.20;;;;;;;7.88;63.60;99817.06;4986278;28;20026;-76
2022/04/05 04:02:59;;;;;;;0.20;0.20;;;;;;;7.80;63.46;99820.78;4986840;28;20034;-76
2022/04/05 04:05:25;;;;;;;0.30;0.30;;;;;;;7.90;64.14;99829.75;4986724;28;20027;-76
2022/04/05 04:07:54;;;;;;;0.25;0.25;;;;;;;7.80;64.13;99820.78;4987914;28;20448;-76
2022/04/05 04:10:22;;;;;;;0.30;0.30;;;;;;;8.04;63.10;99830.13;4985931;28;20027;-76
2022/04/05 04:12:51;;;;;;;0.20;0.20;;;;;;;7.92;63.44;99827.41;4985808;28;20061;-75
2022/04/05 04:15:19;;;;;;;0.20;0.20;;;;;;;7.93;63.67;99837.34;4985737;28;20034;-75
2022/04/05 04:17:45;;;;;;;0.20;0.20;;;;;;;7.79;64.16;99838.56;4985008;28;20369;-76
2022/04/05 04:20:13;;;;;;;0.20;0.20;;;;;;;7.75;64.90;99840.41;4986233;28;20030;-76
2022/04/05 04:22:41;;;;;;;0.20;0.20;;;;;;;7.74;65.48;99844.34;4987840;28;20026;-76
2022/04/05 04:25:08;;;;;;;0.20;0.20;;;;;;;7.84;64.36;99826.44;4988318;28;20057;-75
2022/04/05 04:27:37;;;;;;;0.20;0.20;;;;;;;7.73;64.91;99839.97;4987151;28;20070;-76
2022/04/05 04:30:03;;;;;;;0.20;0.20;;;;;;;7.71;65.08;99847.00;4984091;28;20023;-75
2022/04/05 04:32:32;;;;;;;0.20;0.20;;;;;;;7.68;65.43;99843.00;4981181;28;20062;-76
2022/04/05 04:34:58;;;;;;;0.20;0.20;;;;;;;7.75;65.28;99840.41;4981520;28;20030;-75
2022/04/05 04:37:23;;;;;;;0.20;0.20;;;;;;;7.69;65.30;99841.03;4981404;28;20035;-76
2022/04/05 04:39:52;;;;;;;0.20;0.20;;;;;;;7.68;65.89;99840.22;4982385;28;20027;-75
2022/04/05 04:42:18;;;;;;;0.20;0.20;;;;;;;7.65;65.79;99829.84;4981958;28;20165;-76
2022/04/05 04:44:43;;;;;;;0.30;0.30;;;;;;;7.69;66.16;99838.25;4981509;28;20469;-76
2022/04/05 04:47:09;;;;;;;0.30;0.30;;;;;;;7.71;65.69;99839.50;4981451;28;20037;-75
2022/04/05 04:49:37;;;;;;;0.20;0.20;;;;;;;7.65;66.03;99851.97;4981865;28;20113;-75
2022/04/05 04:52:03;;;;;;;0.20;0.20;;;;;;;7.67;65.32;99849.69;4981643;28;20078;-75
2022/04/05 04:54:32;;;;;;;0.20;0.20;;;;;;;7.71;65.65;99850.56;4982150;28;20058;-75
2022/04/05 04:57:03;;;;;;;0.20;0.20;;;;;;;7.81;65.46;99852.84;4981233;28;20035;-76
2022/04/05 04:59:29;;;;;;;0.20;0.20;;;;;;;7.88;64.89;99857.78;4979908;28;20031;-75
2022/04/05 05:01:55;;;;;;;0.20;0.20;;;;;;;7.90;64.66;99857.44;4980001;28;20071;-75
2022/04/05 05:04:23;;;;;;;0.20;0.20;;;;;;;7.93;64.50;99849.22;4980534;28;20035;-76
2022/04/05 05:06:53;;;;;;;0.30;0.30;;;;;;;8.13;63.71;99855.72;4980738;28;20031;-76
2022/04/05 05:09:24;;;;;;;0.20;0.20;;;;;;;8.19;62.99;99854.28;4980819;28;20030;-76
2022/04/05 05:11:50;;;;;;;0.30;0.30;;;;;;;8.42;62.55;99862.06;4982434;28;20085;-76
2022/04/05 05:14:19;;;;;;;0.30;0.30;;;;;;;8.52;61.50;99873.44;4981939;28;20046;-77
2022/04/05 05:16:44;;;;;;;0.20;0.20;;;;;;;8.51;62.10;99863.47;4981993;28;20031;-76
2022/04/05 05:19:13;;;;;;;0.20;0.20;;;;;;;8.71;61.97;99869.13;4980599;28;20049;-76
2022/04/05 05:21:38;;;;;;;0.20;0.20;;;;;;;8.93;60.94;99877.63;4978899;28;20030;-76
2022/04/05 05:24:07;;;;;;;0.30;0.30;;;;;;;9.08;60.08;99877.97;4981106;28;20042;-76
2022/04/05 05:26:35;;;;;;;0.20;0.20;;;;;;;9.31;59.18;99883.66;4980977;28;20094;-76
2022/04/05 05:29:01;;;;;;;0.30;0.30;;;;;;;9.63;58.22;99882.41;4979017;28;20038;-76
2022/04/05 05:31:26;;;;;;;0.20;0.20;;;;;;;9.81;57.30;99882.78;4980426;28;20130;-76
2022/04/05 05:33:59;;;;;;;0.20;0.20;;;;;;;10.17;56.43;99877.94;4980955;28;20026;-76
2022/04/05 05:36:27;;;;;;;0.20;0.20;;;;;;;10.39;55.27;99880.00;4977701;28;20038;-76
2022/04/05 05:38:53;;;;;;;0.20;0.20;;;;;;;10.55;55.75;99888.25;4980617;28;20035;-76
2022/04/05 05:41:18;;;;;;;0.30;0.30;;;;;;;10.74;54.98;99890.94;4980040;28;20042;-76
2022/04/05 05:43:45;;;;;;;0.20;0.20;;;;;;;11.06;53.81;99887.09;4980328;28;20034;-76
2022/04/05 05:46:12;;;;;;;0.20;0.20;;;;;;;11.42;52.67;99889.25;4979870;28;20081;-76
2022/04/05 05:51:15;;;;;;;0.20;0.20;;;;;;;12.41;50.50;99897.34;5032168;23;20065;-76
2022/04/05 05:53:43;;;;;;;0.20;0.20;;;;;;;12.77;48.86;99895.69;4979089;28;20362;-76
2022/04/05 05:56:14;;;;;;;0.25;0.25;;;;;;;13.25;47.85;99906.88;4978693;28;20026;-76
2022/04/05 05:58:40;;;;;;;0.20;0.20;;;;;;;13.66;47.23;99905.97;4978911;28;20105;-76
2022/04/05 06:01:09;;;;;;;0.20;0.20;;;;;;;13.74;45.92;99905.63;4978289;28;20469;-76
2022/04/05 06:03:35;;;;;;;0.20;0.20;;;;;;;14.35;44.99;99915.06;4978419;28;20061;-76
2022/04/05 06:06:03;;;;;;;0.20;0.20;;;;;;;14.80;44.02;99909.19;4978733;28;20034;-76
2022/04/05 06:08:28;;;;;;;0.30;0.30;;;;;;;15.07;42.54;99916.03;4977830;28;20026;-75
2022/04/05 06:10:57;;;;;;;0.20;0.20;;;;;;;15.58;42.77;99914.00;4978200;28;20046;-75
2022/04/05 06:13:23;;;;;;;0.20;0.20;;;;;;;15.88;41.44;99922.00;4977007;28;20062;-76
2022/04/05 06:15:51;;;;;;;0.20;0.20;;;;;;;15.80;39.95;99911.97;4976494;28;20045;-76
2022/04/05 06:18:17;;;;;;;0.20;0.20;;;;;;;16.21;40.61;99915.84;4976572;28;20117;-77
2022/04/05 06:20:42;;;;;;;0.20;0.20;;;;;;;16.84;38.86;99915.13;4977247;28;20073;-76
2022/04/05 06:23:08;;;;;;;0.20;0.20;;;;;;;17.00;38.92;99915.41;4976932;28;20081;-77
2022/04/05 06:25:36;;;;;;;0.20;0.20;;;;;;;17.17;37.99;99911.66;4976653;28;20492;-76
2022/04/05 06:28:09;;;;;;;0.20;0.20;;;;;;;17.23;37.07;99912.81;4994640;28;20026;-76
2022/04/05 06:30:37;;;;;;;0.20;0.20;;;;;;;17.58;37.10;99913.72;4993755;28;20022;-76
2022/04/05 06:33:10;;;;;;;0.20;0.20;;;;;;;17.78;37.21;99919.53;4976768;28;20280;-76
2022/04/05 06:35:41;;;;;;;0.20;0.20;;;;;;;18.37;36.14;99926.91;4976591;28;20068;-76
2022/04/05 06:38:07;;;;;;;0.20;0.20;;;;;;;17.87;35.40;99930.31;4976401;28;20164;-76
2022/04/05 06:40:34;;;;;;;0.20;0.20;;;;;;;17.99;35.79;99919.31;4978647;28;20112;-74
2022/04/05 06:43:03;;;;;;;0.20;0.20;;;;;;;17.22;36.78;99922.47;4980878;28;20031;-74
2022/04/05 06:48:14;;;;;;;0.20;0.20;;;;;;;17.26;36.16;99930.88;4998100;28;20112;-74
2022/04/05 06:50:43;;;;;;;0.20;0.20;;;;;;;17.24;36.26;99900.34;4980103;28;20493;-75
2022/04/05 06:53:09;;;;;;;0.20;0.20;;;;;;;18.05;35.40;99926.06;4964841;28;20034;-74
2022/04/05 06:55:35;;;;;;;0.20;0.20;;;;;;;18.00;34.96;99937.00;4980538;28;20029;-74
2022/04/05 06:58:08;;;;;;;0.20;0.20;;;;;;;18.18;34.62;99917.09;4980146;28;20058;-76
2022/04/05 07:00:34;;;;;;;0.10;0.10;;;;;;;18.18;34.15;99931.16;4980181;28;20036;-74
2022/04/05 07:03:00;;;;;;;0.20;0.20;;;;;;;18.63;34.46;99926.13;4980751;28;20023;-74
2022/04/05 07:05:32;;;;;;;0.20;0.20;;;;;;;18.40;34.57;99920.44;4980114;28;20027;-74
2022/04/05 07:08:00;;;;;;;0.20;0.20;;;;;;;17.43;35.73;99915.84;4980341;28;20481;-74
2022/04/05 07:10:28;;;;;;;0.20;0.20;;;;;;;17.48;35.84;99908.97;4979832;28;20033;-74
2022/04/05 07:12:53;;;;;;;0.20;0.20;;;;;;;17.66;35.63;99920.84;4979893;28;20027;-74
2022/04/05 07:15:22;;;;;;;0.20;0.20;;;;;;;18.41;34.50;99916.38;4980001;28;20121;-75
2022/04/05 07:17:50;;;;;;;0.20;0.20;;;;;;;17.73;34.79;99920.78;4980080;28;20031;-75
2022/04/05 07:20:22;;;;;;;0.20;0.20;;;;;;;17.99;35.57;99916.50;4980492;28;20030;-74
2022/04/05 07:22:49;;;;;;;0.20;0.20;;;;;;;18.83;34.21;99910.16;4980425;28;20432;-73
2022/04/05 07:25:20;;;;;;;0.20;0.20;;;;;;;18.58;34.10;99910.50;4980559;28;20486;-74
2022/04/05 07:27:47;;;;;;;0.20;0.20;;;;;;;18.69;33.34;99907.56;4979976;28;20030;-74
2022/04/05 07:30:13;;;;;;;0.20;0.20;;;;;;;19.21;32.60;99912.78;4979809;28;20493;-74
2022/04/05 07:32:42;;;;;;;0.20;0.20;;;;;;;19.97;31.91;99912.25;4980137;28;20388;-74
2022/04/05 07:35:08;;;;;;;0.20;0.20;;;;;;;19.48;31.59;99926.03;4963879;28;20388;-74
2022/04/05 07:37:37;;;;;;;0.20;0.20;;;;;;;19.55;32.07;99918.28;4979463;28;20041;-74
2022/04/05 07:40:05;;;;;;;0.20;0.20;;;;;;;20.18;30.71;99920.28;4979514;28;20039;-74
2022/04/05 07:42:32;;;;;;;0.20;0.20;;;;;;;19.69;31.08;99922.06;4996931;28;20069;-74
2022/04/05 07:45:01;;;;;;;0.20;0.20;;;;;;;19.92;31.14;99912.75;4980256;28;20058;-74
2022/04/05 07:47:26;;;;;;;0.20;0.20;;;;;;;19.88;30.77;99913.66;4996567;28;20054;-74
2022/04/05 07:49:55;;;;;;;0.20;0.20;;;;;;;19.56;30.87;99913.41;4979125;28;20085;-74
2022/04/05 07:52:20;;;;;;;0.20;0.20;;;;;;;18.37;32.22;99926.91;4978365;28;20026;-74
2022/04/05 07:54:46;;;;;;;0.20;0.20;;;;;;;18.54;31.64;99932.31;4979373;28;20026;-74
2022/04/05 07:57:13;;;;;;;0.20;0.20;;;;;;;19.57;31.15;99927.09;4979412;28;20031;-74
2022/04/05 07:59:40;;;;;;;0.20;0.20;;;;;;;19.78;30.19;99891.25;4978953;28;20058;-74
2022/04/05 08:02:05;;;;;;;0.20;0.20;;;;;;;19.26;31.19;99929.22;4978915;28;20125;-74
2022/04/05 08:04:31;;;;;;;0.20;0.20;;;;;;;19.64;29.89;99931.81;4978840;28;20082;-74
2022/04/05 08:06:56;;;;;;;0.20;0.20;;;;;;;19.50;29.95;99926.44;4979051;28;20034;-74
2022/04/05 08:09:22;;;;;;;0.20;0.20;;;;;;;19.86;30.02;99916.09;4978952;28;20392;-74
2022/04/05 08:11:51;;;;;;;0.20;0.20;;;;;;;20.67;28.99;99920.50;4978685;28;20117;-73
2022/04/05 08:14:17;;;;;;;0.20;0.20;;;;;;;21.49;28.40;99935.53;4978622;28;20037;-74
2022/04/05 08:16:42;;;;;;;0.20;0.20;;;;;;;22.07;27.21;99932.75;4978672;28;20034;-74
2022/04/05 08:19:11;;;;;;;0.20;0.20;;;;;;;22.39;26.67;99934.69;4978509;28;20046;-75
2022/04/05 08:21:37;;;;;;;0.20;0.20;;;;;;;22.64;25.75;99930.31;4978791;28;20109;-74
2022/04/05 08:24:07;;;;;;;0.20;0.20;;;;;;;21.95;26.22;99925.81;4978713;28;20425;-75
2022/04/05 08:26:32;;;;;;;0.20;0.20;;;;;;;21.79;26.54;99933.53;4978459;28;20034;-74
2022/04/05 08:29:01;;;;;;;0.20;0.20;;;;;;;21.14;26.05;99932.31;4978856;28;20037;-74
2022/04/05 08:31:29;;;;;;;0.20;0.20;;;;;;;20.82;27.76;99930.22;4978507;28;20101;-74
2022/04/05 08:33:58;;;;;;;0.20;0.20;;;;;;;20.42;27.76;99924.63;4978454;28;20058;-74
2022/04/05 08:36:23;;;;;;;0.20;0.20;;;;;;;19.69;29.11;99928.50;4978396;28;20121;-75
2022/04/05 08:38:49;;;;;;;0.20;0.20;;;;;;;19.38;30.21;99931.44;4978433;28;20114;-76
2022/04/05 08:41:21;;;;;;;0.20;0.20;;;;;;;19.66;29.11;99929.41;4978732;28;20065;-74
2022/04/05 08:43:49;;;;;;;0.20;0.20;;;;;;;20.01;29.45;99918.63;4978233;28;20029;-74
2022/04/05 08:46:16;;;;;;;0.20;0.20;;;;;;;19.46;29.58;99926.47;4978442;28;20393;-74
2022/04/05 08:48:46;;;;;;;0.20;0.20;;;;;;;20.00;29.19;99923.50;4978562;28;20482;-74
2022/04/05 08:51:15;;;;;;;0.20;0.20;;;;;;;19.93;29.70;99917.19;4977722;28;20497;-74
2022/04/05 08:53:41;;;;;;;0.20;0.20;;;;;;;19.92;28.82;99924.88;4978255;28;20034;-74
2022/04/05 08:56:09;;;;;;;0.20;0.20;;;;;;;19.38;29.30;99936.28;4978807;28;20029;-74
2022/04/05 08:58:38;;;;;;;0.20;0.20;;;;;;;18.19;31.24;99935.56;4979135;28;20117;-74
2022/04/05 09:01:07;;;;;;;0.20;0.20;;;;;;;18.51;31.41;99932.34;4980253;28;20539;-74
2022/04/05 09:03:35;;;;;;;0.20;0.20;;;;;;;19.50;30.28;99932.06;4978322;28;20026;-75
2022/04/05 09:06:25;;;;;;;0.20;0.20;;;;;;;19.14;29.77;99921.38;4978158;28;20493;-75
2022/04/05 09:09:11;;;;;;;0.20;0.20;;;;;;;19.01;29.09;99929.63;4961891;28;20045;-76
2022/04/05 09:11:59;;;;;;;0.20;0.20;;;;;;;19.40;29.04;99933.06;4964797;28;20042;-75
2022/04/05 09:14:30;;;;;;;0.20;0.20;;;;;;;20.29;28.94;99920.88;4977439;28;20058;-74
2022/04/05 09:17:10;;;;;;;0.20;0.20;;;;;;;20.79;28.86;99928.31;4977707;28;20038;-73
2022/04/05 09:19:52;;;;;;;0.20;0.20;;;;;;;20.44;28.97;99943.19;4977490;28;20042;-74
2022/04/05 09:22:34;;;;;;;0.20;0.20;;;;;;;19.35;30.85;99937.16;4978388;28;20026;-75
2022/04/05 09:25:16;;;;;;;0.20;0.20;;;;;;;19.49;30.92;99936.09;4977911;28;20031;-75
2022/04/05 09:27:48;;;;;;;0.20;0.20;;;;;;;19.48;31.20;99928.88;4977816;28;20489;-76
2022/04/05 09:30:29;;;;;;;0.20;0.20;;;;;;;18.75;32.90;99928.44;4977625;28;20388;-77
2022/04/05 09:32:59;;;;;;;0.20;0.20;;;;;;;18.98;32.81;99921.25;4963195;28;20030;-77
2022/04/05 09:35:39;;;;;;;0.20;0.20;;;;;;;19.26;32.58;99917.94;4977330;28;20082;-77
2022/04/05 09:38:15;;;;;;;0.20;0.20;;;;;;;19.80;31.02;99917.81;4977561;28;20504;-77
2022/04/05 09:40:41;;;;;;;0.20;0.20;;;;;;;19.75;31.74;99909.06;4977269;28;20081;-75
2022/04/05 09:43:17;;;;;;;0.20;0.20;;;;;;;19.61;31.53;99916.56;4977268;28;20030;-75
2022/04/05 09:45:52;;;;;;;0.20;0.20;;;;;;;19.10;32.68;99915.00;4977657;28;20034;-78
2022/04/05 09:48:22;;;;;;;0.20;0.20;;;;;;;19.94;30.75;99913.13;4977102;28;20050;-75
2022/04/05 09:51:06;;;;;;;0.20;0.20;;;;;;;20.92;30.14;99917.88;4976518;28;20101;-75
2022/04/05 09:53:38;;;;;;;0.20;0.20;;;;;;;21.76;29.04;99912.56;4976961;28;20026;-74
2022/04/05 09:56:22;;;;;;;0.20;0.20;;;;;;;21.81;27.16;99917.69;4977332;28;20141;-77
2022/04/05 09:58:54;;;;;;;0.20;0.20;;;;;;;22.48;26.86;99911.38;4977057;28;20037;-75
2022/04/05 10:01:27;;;;;;;0.20;0.20;;;;;;;22.57;27.94;99907.84;4976876;28;20026;-76
2022/04/05 10:04:12;;;;;;;0.20;0.20;;;;;;;22.91;26.64;99905.19;4976983;28;20034;-76
2022/04/05 10:06:43;;;;;;;0.20;0.20;;;;;;;22.41;27.07;99911.56;4976939;28;20048;-75
2022/04/05 10:09:09;;;;;;;0.13;0.13;;;;;;;21.66;27.42;99902.31;4994429;28;20508;-78
2022/04/05 10:11:39;;;;;;;0.20;0.20;;;;;;;22.62;26.87;99898.78;4977054;28;20484;-77
2022/04/05 10:14:10;;;;;;;0.20;0.20;;;;;;;21.92;27.31;99909.69;4976595;28;20027;-77
2022/04/05 10:16:37;;;;;;;0.20;0.20;;;;;;;23.20;25.98;99907.06;4976811;28;20125;-77
2022/04/05 10:19:09;;;;;;;0.20;0.20;;;;;;;22.54;26.89;99908.75;4977179;28;20030;-78
2022/04/05 10:21:36;;;;;;;0.20;0.20;;;;;;;23.37;26.09;99908.50;4993779;28;20495;-77
2022/04/05 10:24:06;;;;;;;0.20;0.20;;;;;;;23.80;25.51;99901.38;4976977;28;20038;-76
2022/04/05 10:26:39;;;;;;;0.13;0.13;;;;;;;24.06;25.10;99902.06;4976787;28;20388;-76
2022/04/05 10:29:10;;;;;;;0.10;0.10;;;;;;;24.19;23.60;99897.13;4976525;28;20035;-76
2022/04/05 10:31:39;;;;;;;0.20;0.20;;;;;;;24.26;22.37;99905.38;4976186;28;20081;-78
2022/04/05 10:34:14;;;;;;;0.20;0.20;;;;;;;24.47;21.70;99895.25;4976566;28;20054;-76
2022/04/05 10:37:18;;;;;;;0.20;0.20;;;;;;;24.13;21.14;99901.00;4976787;28;20026;-78
2022/04/05 10:39:56;;;;;;;0.10;0.10;;;;;;;24.59;21.14;99902.09;4946844;28;20035;-78
2022/04/05 10:42:24;;;;;;;0.10;0.10;;;;;;;22.90;23.01;99902.78;4977037;28;20443;-78
2022/04/05 10:45:08;;;;;;;0.20;0.20;;;;;;;23.11;23.63;99901.28;4976435;28;20030;-77
2022/04/05 10:47:57;;;;;;;0.20;0.20;;;;;;;22.60;23.26;99895.59;4976337;28;20062;-77
2022/04/05 10:50:22;;;;;;;0.20;0.20;;;;;;;22.69;22.58;99890.84;4972844;28;20055;-79
2022/04/05 10:53:08;;;;;;;0.20;0.20;;;;;;;21.90;22.22;99900.84;4973124;28;20078;-78
2022/04/05 10:55:53;;;;;;;0.10;0.10;;;;;;;21.73;23.03;99907.00;4972935;28;20035;-77
2022/04/05 10:58:19;;;;;;;0.20;0.20;;;;;;;22.29;21.72;99898.16;4972570;28;20062;-77
2022/04/05 11:00:48;;;;;;;0.10;0.10;;;;;;;21.17;22.85;99893.88;4973656;28;20118;-78
2022/04/05 11:03:14;;;;;;;0.20;0.20;;;;;;;21.05;22.66;99894.56;4973045;28;20482;-79
2022/04/05 11:05:42;;;;;;;0.20;0.20;;;;;;;21.44;23.04;99897.22;4973465;28;20026;-77
2022/04/05 11:08:11;;;;;;;0.20;0.20;;;;;;;21.82;23.54;99893.78;4973332;28;20031;-77
2022/04/05 11:10:37;;;;;;;0.20;0.20;;;;;;;21.68;25.29;99900.66;4973484;28;20449;-77
2022/04/05 11:13:09;;;;;;;0.13;0.13;;;;;;;21.14;27.86;99881.38;4973210;28;20038;-77
2022/04/05 11:15:45;;;;;;;0.20;0.20;;;;;;;22.00;26.98;99892.47;4972808;28;20038;-77
2022/04/05 11:18:11;;;;;;;0.20;0.20;;;;;;;22.02;27.16;99895.69;4972756;28;20085;-77
2022/04/05 11:20:39;;;;;;;0.20;0.20;;;;;;;22.01;26.43;99889.22;4972911;28;20034;-76
2022/04/05 11:23:05;;;;;;;0.10;0.10;;;;;;;22.59;26.95;99894.03;4957381;28;20447;-77
2022/04/05 11:25:31;;;;;;;0.20;0.20;;;;;;;22.76;27.43;99892.66;4973337;28;20053;-76
2022/04/05 11:28:26;;;;;;;0.20;0.20;;;;;;;22.13;27.08;99891.31;4975529;28;20042;-76
2022/04/05 11:31:04;;;;;;;0.20;0.20;;;;;;;21.70;27.54;99891.69;4973762;28;20041;-76
2022/04/05 11:33:32;;;;;;;0.17;0.17;;;;;;;21.93;27.68;99891.44;4976774;28;20033;-76
2022/04/05 11:35:59;;;;;;;0.20;0.20;;;;;;;22.00;27.80;99893.31;4977214;28;20363;-79
2022/04/05 11:38:26;;;;;;;0.10;0.10;;;;;;;20.85;27.80;99901.09;4976332;28;20115;-76
2022/04/05 11:40:55;;;;;;;0.13;0.13;;;;;;;21.60;27.96;99895.63;4976774;28;20564;-77
2022/04/05 11:43:24;;;;;;;0.20;0.20;;;;;;;21.93;27.90;99897.09;4976612;28;20076;-78
2022/04/05 11:45:55;;;;;;;0.20;0.20;;;;;;;22.25;27.78;99894.63;4976835;28;20138;-77
2022/04/05 11:48:23;;;;;;;0.20;0.20;;;;;;;22.50;27.62;99897.53;4973670;28;20122;-79
2022/04/05 11:50:53;;;;;;;0.10;0.10;;;;;;;22.48;27.55;99900.81;4975971;28;20050;-79